createdAt,value
2023-08-25T00:01:33.996Z,100240.84
2023-08-25T00:04:00.706Z,100232.34
2023-08-25T00:06:27.217Z,100233.94
2023-08-25T00:08:53.652Z,100224.25
2023-08-25T00:11:20.099Z,100219.38
2023-08-25T00:13:46.614Z,100216.16
2023-08-25T00:16:14.474Z,100219.78
2023-08-25T00:18:41.116Z,100204.00
2023-08-25T00:21:07.564Z,100204.44
2023-08-25T00:23:34.008Z,100198.75
2023-08-25T00:26:00.518Z,100194.69
2023-08-25T00:28:26.963Z,100195.53
2023-08-25T00:30:54.259Z,100183.75
2023-08-25T00:33:22.061Z,100176.09
2023-08-25T00:35:48.523Z,100180.94
2023-08-25T00:38:14.953Z,100177.69
2023-08-25T00:40:41.408Z,100174.06
2023-08-25T00:43:07.921Z,100176.91
2023-08-25T00:45:39.525Z,100167.16
2023-08-25T00:48:07.067Z,100159.91
2023-08-25T00:50:35.324Z,100159.09
2023-08-25T00:53:02.062Z,100163.53
2023-08-25T00:55:29.067Z,100157.88
2023-08-25T00:57:55.946Z,100159.91
2023-08-25T01:00:24.434Z,100162.34
2023-08-25T01:02:51.042Z,100156.66
2023-08-25T01:05:17.667Z,100163.94
2023-08-25T01:07:45.469Z,100155.00
2023-08-25T01:10:12.163Z,100147.34
2023-08-25T01:12:50.655Z,100148.56
2023-08-25T01:15:23.430Z,100147.78
2023-08-25T01:17:57.201Z,100144.94
2023-08-25T01:20:24.386Z,100132.38
2023-08-25T01:23:06.951Z,100134.00
2023-08-25T01:25:35.471Z,100135.63
2023-08-25T01:28:04.471Z,100138.03
2023-08-25T01:30:32.399Z,100123.88
2023-08-25T01:32:59.266Z,100124.69
2023-08-25T01:35:36.073Z,100112.53
2023-08-25T01:38:08.904Z,100106.47
2023-08-25T01:40:43.153Z,100107.28
2023-08-25T01:43:12.009Z,100109.72
2023-08-25T01:45:38.431Z,100109.31
2023-08-25T01:48:07.009Z,100112.16
2023-08-25T01:50:35.041Z,100121.84
2023-08-25T01:53:02.123Z,100128.75
2023-08-25T01:55:28.546Z,100132.78
2023-08-25T01:57:56.543Z,100136.00
2023-08-25T02:00:25.068Z,100137.22
2023-08-25T02:02:51.581Z,100128.31
2023-08-25T02:05:18.205Z,100127.09
2023-08-25T02:07:44.665Z,100131.16
2023-08-25T02:10:11.517Z,100123.47
2023-08-25T02:12:38.007Z,100117.78
2023-08-25T02:15:07.452Z,100124.28
2023-08-25T02:17:33.931Z,100121.84
2023-08-25T02:20:00.460Z,100124.28
2023-08-25T02:22:26.905Z,100122.69
2023-08-25T02:24:53.347Z,100123.47
2023-08-25T02:27:20.023Z,100115.38
2023-08-25T02:29:46.508Z,100128.28
2023-08-25T02:32:14.290Z,100128.31
2023-08-25T02:34:40.804Z,100120.63
2023-08-25T02:37:07.285Z,100116.97
2023-08-25T02:39:33.724Z,100117.41
2023-08-25T02:42:00.183Z,100120.63
2023-08-25T02:44:26.637Z,100111.31
2023-08-25T02:46:53.071Z,100112.94
2023-08-25T02:49:20.866Z,100112.53
2023-08-25T02:51:47.325Z,100113.34
2023-08-25T02:54:13.810Z,100112.94
2023-08-25T02:56:40.262Z,100112.13
2023-08-25T02:59:06.742Z,100109.72
2023-08-25T03:01:33.227Z,100116.97
2023-08-25T03:04:00.053Z,100121.44
2023-08-25T03:06:27.837Z,100114.13
2023-08-25T03:08:54.290Z,100108.88
2023-08-25T03:11:20.796Z,100116.16
2023-08-25T03:13:47.302Z,100124.25
2023-08-25T03:16:13.792Z,100117.75
2023-08-25T03:18:40.290Z,100111.31
2023-08-25T03:21:06.901Z,100114.94
2023-08-25T03:23:34.669Z,100116.97
2023-08-25T03:26:03.672Z,100109.66
2023-08-25T03:28:30.189Z,100112.50
2023-08-25T03:30:56.649Z,100120.19
2023-08-25T03:33:23.130Z,100121.81
2023-08-25T03:35:49.565Z,100119.00
2023-08-25T03:38:15.993Z,100114.53
2023-08-25T03:40:43.794Z,100109.25
2023-08-25T03:43:10.228Z,100107.28
2023-08-25T03:45:36.671Z,100113.72
2023-08-25T03:48:03.664Z,100112.50
2023-08-25T03:50:30.181Z,100109.66
2023-08-25T03:52:56.642Z,100113.72
2023-08-25T03:55:24.716Z,100109.66
2023-08-25T03:57:53.050Z,100112.88
2023-08-25T04:00:20.507Z,100115.31
2023-08-25T04:02:47.002Z,100102.00
2023-08-25T04:05:13.536Z,100106.03
2023-08-25T04:07:39.982Z,100102.78
2023-08-25T04:10:07.351Z,100108.06
2023-08-25T04:12:34.037Z,100101.56
2023-08-25T04:15:01.808Z,100103.19
2023-08-25T04:17:28.305Z,100109.59
2023-08-25T04:19:54.779Z,100099.09
2023-08-25T04:22:21.258Z,100111.22
2023-08-25T04:24:48.277Z,100114.44
2023-08-25T04:27:14.725Z,100114.50
2023-08-25T04:29:41.162Z,100109.59
2023-08-25T04:32:08.963Z,100109.97
2023-08-25T04:34:35.429Z,100094.25
2023-08-25T04:37:01.878Z,100098.22
2023-08-25T04:39:28.557Z,100097.44
2023-08-25T04:41:55.002Z,100096.59
2023-08-25T04:44:21.463Z,100097.47
2023-08-25T04:46:48.036Z,100087.31
2023-08-25T04:49:16.276Z,100097.03
2023-08-25T04:51:42.736Z,100094.63
2023-08-25T04:54:10.397Z,100091.38
2023-08-25T04:56:36.830Z,100093.38
2023-08-25T04:59:03.294Z,100091.78
2023-08-25T05:01:29.873Z,100097.44
2023-08-25T05:03:56.428Z,100088.53
2023-08-25T05:06:24.280Z,100086.13
2023-08-25T05:08:50.909Z,100091.78
2023-08-25T05:11:17.363Z,100094.16
2023-08-25T05:13:43.847Z,100091.38
2023-08-25T05:16:10.567Z,100095.03
2023-08-25T05:18:37.096Z,100095.44
2023-08-25T05:21:03.633Z,100102.34
2023-08-25T05:23:31.443Z,100099.56
2023-08-25T05:25:57.911Z,100108.41
2023-08-25T05:28:25.598Z,100109.63
2023-08-25T05:30:53.588Z,100106.34
2023-08-25T05:33:20.071Z,100111.66
2023-08-25T05:35:46.568Z,100122.19
2023-08-25T05:38:13.236Z,100121.75
2023-08-25T05:40:41.029Z,100122.19
2023-08-25T05:43:07.475Z,100113.22
2023-08-25T05:45:34.262Z,100114.06
2023-08-25T05:48:00.880Z,100115.66
2023-08-25T05:50:27.371Z,100111.28
2023-08-25T05:52:53.830Z,100114.50
2023-08-25T05:55:20.340Z,100115.75
2023-08-25T05:57:48.180Z,100117.75
2023-08-25T06:00:15.275Z,100121.81
2023-08-25T06:02:41.879Z,100123.81
2023-08-25T06:05:08.748Z,100128.69
2023-08-25T06:07:35.212Z,100131.53
2023-08-25T06:10:01.798Z,100133.16
2023-08-25T06:12:29.510Z,100137.19
2023-08-25T06:14:57.325Z,100146.09
2023-08-25T06:17:23.809Z,100141.25
2023-08-25T06:19:50.264Z,100144.09
2023-08-25T06:22:16.886Z,100150.94
2023-08-25T06:24:43.319Z,100146.16
2023-08-25T06:27:09.762Z,100145.31
2023-08-25T06:29:36.207Z,100140.88
2023-08-25T06:32:04.509Z,100148.94
2023-08-25T06:34:31.032Z,100139.63
2023-08-25T06:36:57.482Z,100131.16
2023-08-25T06:39:23.923Z,100129.53
2023-08-25T06:41:50.837Z,100126.69
2023-08-25T06:44:17.353Z,100108.91
2023-08-25T06:46:43.849Z,100108.09
2023-08-25T06:49:11.659Z,100109.28
2023-08-25T06:51:38.177Z,100107.25
2023-08-25T06:54:07.332Z,100104.41
2023-08-25T06:56:34.154Z,100101.63
2023-08-25T06:59:00.598Z,100098.38
2023-08-25T07:01:27.040Z,100104.00
2023-08-25T07:03:53.577Z,100104.81
2023-08-25T07:06:21.423Z,100110.06
2023-08-25T07:08:47.887Z,100101.56
2023-08-25T07:11:14.361Z,100107.25
2023-08-25T07:13:40.854Z,100104.84
2023-08-25T07:16:07.380Z,100094.38
2023-08-25T07:18:33.844Z,100091.06
2023-08-25T07:21:03.625Z,100087.84
2023-08-25T07:23:31.436Z,100074.81
2023-08-25T07:25:57.959Z,100072.38
2023-08-25T07:28:24.585Z,100070.00
2023-08-25T07:30:51.644Z,100063.03
2023-08-25T07:33:18.217Z,100060.59
2023-08-25T07:35:45.142Z,100070.81
2023-08-25T07:38:11.577Z,100081.25
2023-08-25T07:40:39.373Z,100091.00
2023-08-25T07:43:05.924Z,100101.94
2023-08-25T07:45:32.708Z,100106.41
2023-08-25T07:47:59.703Z,100109.56
2023-08-25T07:50:28.946Z,100116.44
2023-08-25T07:52:55.730Z,100114.09
2023-08-25T07:55:22.722Z,100124.97
2023-08-25T07:57:51.034Z,100132.66
2023-08-25T08:00:18.971Z,100130.16
2023-08-25T08:02:46.958Z,100130.56
2023-08-25T08:05:14.228Z,100137.88
2023-08-25T08:07:40.704Z,100132.16
2023-08-25T08:10:08.293Z,100147.19
2023-08-25T08:12:34.822Z,100148.34
2023-08-25T08:15:02.609Z,100141.09
2023-08-25T08:17:29.121Z,100129.84
2023-08-25T08:19:56.154Z,100128.22
2023-08-25T08:22:22.702Z,100138.56
2023-08-25T08:24:51.044Z,100141.03
2023-08-25T08:27:18.907Z,100142.34
2023-08-25T08:29:47.194Z,100137.28
2023-08-25T08:32:17.185Z,100133.22
2023-08-25T08:34:43.812Z,100135.19
2023-08-25T08:37:10.257Z,100140.00
2023-08-25T08:39:37.370Z,100134.75
2023-08-25T08:42:04.936Z,100127.75
2023-08-25T08:44:33.356Z,100126.06
2023-08-25T08:47:00.325Z,100122.94
2023-08-25T08:49:28.253Z,100127.25
2023-08-25T08:51:57.153Z,100133.69
2023-08-25T08:54:25.868Z,100129.34
2023-08-25T08:56:52.637Z,100134.78
2023-08-25T08:59:19.075Z,100130.81
2023-08-25T09:01:45.876Z,100125.94
2023-08-25T09:04:12.574Z,100133.13
2023-08-25T09:06:40.920Z,100136.81
2023-08-25T09:09:07.445Z,100149.31
2023-08-25T09:11:33.936Z,100151.63
2023-08-25T09:14:00.377Z,100152.41
2023-08-25T09:16:26.865Z,100152.41
2023-08-25T09:18:53.428Z,100144.91
2023-08-25T09:21:21.355Z,100145.34
2023-08-25T09:23:57.002Z,100153.69
2023-08-25T09:26:24.137Z,100147.81
2023-08-25T09:28:52.478Z,100151.91
2023-08-25T09:31:23.369Z,100155.19
2023-08-25T09:33:51.425Z,100155.88
2023-08-25T09:36:17.930Z,100155.72
2023-08-25T09:38:52.849Z,100159.72
2023-08-25T09:41:27.964Z,100165.69
2023-08-25T09:43:57.635Z,100172.03
2023-08-25T09:46:27.409Z,100173.28
2023-08-25T09:48:54.407Z,100173.03
2023-08-25T09:51:22.082Z,100179.09
2023-08-25T09:53:50.705Z,100180.19
2023-08-25T09:56:19.410Z,100191.78
2023-08-25T09:58:48.754Z,100198.88
2023-08-25T10:01:15.684Z,100205.28
2023-08-25T10:03:42.300Z,100206.59
2023-08-25T10:06:09.701Z,100222.06
2023-08-25T10:08:36.207Z,100219.59
2023-08-25T10:11:04.383Z,100226.44
2023-08-25T10:13:32.595Z,100219.50
2023-08-25T10:16:02.987Z,100214.09
2023-08-25T10:18:32.138Z,100199.94
2023-08-25T10:21:00.616Z,100207.50
2023-08-25T10:23:29.786Z,100198.59
2023-08-25T10:25:56.374Z,100200.63
2023-08-25T10:28:22.986Z,100194.50
2023-08-25T10:30:49.519Z,100198.75
2023-08-25T10:33:17.327Z,100191.38
2023-08-25T10:35:45.389Z,100184.69
2023-08-25T10:38:37.296Z,100183.13
2023-08-25T10:41:19.632Z,100168.72
2023-08-25T10:43:48.499Z,100177.22
2023-08-25T10:46:15.014Z,100170.28
2023-08-25T10:48:43.763Z,100165.41
2023-08-25T10:51:12.039Z,100163.44
2023-08-25T10:53:43.154Z,100156.13
2023-08-25T10:56:20.803Z,100146.06
2023-08-25T10:58:58.511Z,100131.91
2023-08-25T11:01:26.289Z,100132.56
2023-08-25T11:04:05.992Z,100122.91
2023-08-25T11:06:43.093Z,100130.63
2023-08-25T11:09:10.800Z,100175.16
2023-08-25T11:11:38.424Z,100196.31
2023-08-25T11:14:05.172Z,100200.72
2023-08-25T11:16:31.711Z,100188.16
2023-08-25T11:18:58.218Z,100190.59
2023-08-25T11:21:26.650Z,100190.56
2023-08-25T11:23:53.677Z,100180.09
2023-08-25T11:26:20.216Z,100167.13
2023-08-25T11:28:51.238Z,100133.16
2023-08-25T11:31:20.783Z,100119.81
2023-08-25T11:33:47.613Z,100139.66
2023-08-25T11:36:14.342Z,100145.72
2023-08-25T11:38:42.815Z,100127.50
2023-08-25T11:41:10.813Z,100128.31
2023-08-25T11:43:37.626Z,100133.56
2023-08-25T11:46:04.954Z,100144.94
2023-08-25T11:48:33.361Z,100142.50
2023-08-25T11:51:00.547Z,100126.66
2023-08-25T11:53:27.107Z,100098.38
2023-08-25T11:56:05.717Z,100070.84
2023-08-25T11:58:33.466Z,100088.28
2023-08-25T12:01:01.122Z,100091.09
2023-08-25T12:03:27.894Z,100095.94
2023-08-25T12:05:54.614Z,100088.25
2023-08-25T12:08:21.079Z,100091.09
2023-08-25T12:10:47.611Z,100076.94
2023-08-25T12:13:15.431Z,100072.50
2023-08-25T12:15:42.863Z,100104.44
2023-08-25T12:18:12.583Z,100125.88
2023-08-25T12:20:42.917Z,100158.84
2023-08-25T12:23:09.405Z,100178.84
2023-08-25T12:25:35.954Z,100186.53
2023-08-25T12:28:02.496Z,100195.84
2023-08-25T12:30:31.031Z,100199.47
2023-08-25T12:32:57.591Z,100227.88
2023-08-25T12:35:24.115Z,100250.44
2023-08-25T12:37:50.644Z,100260.63
2023-08-25T12:40:17.141Z,100263.72
2023-08-25T12:42:43.599Z,100261.81
2023-08-25T12:45:10.587Z,100260.84
2023-08-25T12:47:38.585Z,100252.31
2023-08-25T12:50:05.896Z,100230.81
2023-08-25T12:52:32.349Z,100204.25
2023-08-25T12:55:10.103Z,100197.75
2023-08-25T12:57:37.170Z,100202.31
2023-08-25T13:00:04.670Z,100213.25
2023-08-25T13:02:31.170Z,100218.91
2023-08-25T13:04:58.974Z,100206.03
2023-08-25T13:07:25.464Z,100213.69
2023-08-25T13:09:51.922Z,100208.06
2023-08-25T13:12:18.357Z,100205.22
2023-08-25T13:14:44.893Z,100199.97
2023-08-25T13:17:11.417Z,100184.16
2023-08-25T13:19:37.927Z,100189.41
2023-08-25T13:22:07.254Z,100182.53
2023-08-25T13:24:33.817Z,100188.22
2023-08-25T13:27:00.302Z,100161.91
2023-08-25T13:29:26.782Z,100156.25
2023-08-25T13:31:53.388Z,100168.38
2023-08-25T13:34:19.870Z,100169.53
2023-08-25T13:36:46.377Z,100150.19
2023-08-25T13:39:14.176Z,100142.50
2023-08-25T13:41:40.778Z,100135.50
2023-08-25T13:44:07.293Z,100123.34
2023-08-25T13:46:33.822Z,100113.63
2023-08-25T13:49:00.399Z,100101.47
2023-08-25T13:51:27.075Z,100088.66
2023-08-25T13:53:54.121Z,100069.19
2023-08-25T13:56:22.387Z,100070.38
2023-08-25T13:58:49.763Z,100080.44
2023-08-25T14:01:16.244Z,100073.25
2023-08-25T14:03:42.956Z,100074.50
2023-08-25T14:06:11.986Z,100065.59
2023-08-25T14:08:38.766Z,100048.56
2023-08-25T14:11:05.300Z,100045.28
2023-08-25T14:13:33.239Z,100036.78
2023-08-25T14:15:59.797Z,100035.50
2023-08-25T14:18:28.183Z,100019.47
2023-08-25T14:20:56.143Z,100018.94
2023-08-25T14:23:22.607Z,100016.09
2023-08-25T14:25:49.029Z,100002.06
2023-08-25T14:28:15.528Z,100002.50
2023-08-25T14:30:43.293Z,100006.28
2023-08-25T14:33:09.880Z,99998.66
2023-08-25T14:35:38.516Z,99995.88
2023-08-25T14:38:04.989Z,99998.75
2023-08-25T14:40:31.553Z,100000.38
2023-08-25T14:42:58.034Z,100015.84
2023-08-25T14:45:26.341Z,100025.50
2023-08-25T14:47:54.391Z,100032.84
2023-08-25T14:50:21.080Z,100034.00
2023-08-25T14:52:47.821Z,100029.22
2023-08-25T14:55:14.288Z,100044.97
2023-08-25T14:57:40.899Z,100042.53
2023-08-25T15:00:08.903Z,100040.13
2023-08-25T15:02:39.267Z,100041.72
2023-08-25T15:05:08.116Z,100029.56
2023-08-25T15:07:34.698Z,100024.69
2023-08-25T15:10:01.196Z,100023.53
2023-08-25T15:12:27.671Z,100014.59
2023-08-25T15:14:54.106Z,100002.91
2023-08-25T15:17:20.516Z,99989.19
2023-08-25T15:19:47.195Z,99988.38
2023-08-25T15:22:15.124Z,99998.81
2023-08-25T15:24:41.645Z,99984.31
2023-08-25T15:27:08.106Z,99981.84
2023-08-25T15:29:47.179Z,99978.97
2023-08-25T15:32:17.369Z,99985.16
2023-08-25T15:34:43.857Z,99980.28
2023-08-25T15:37:10.364Z,99977.00
2023-08-25T15:39:38.179Z,99986.31
2023-08-25T15:42:05.040Z,100011.19
2023-08-25T15:44:31.463Z,100013.00
2023-08-25T15:46:57.986Z,100002.94
2023-08-25T15:49:24.474Z,100002.56
2023-08-25T15:51:51.066Z,100007.75
2023-08-25T15:54:17.539Z,100014.50
2023-08-25T15:56:45.321Z,100012.94
2023-08-25T15:59:11.838Z,100010.88
2023-08-25T16:01:38.503Z,100009.22
2023-08-25T16:04:05.014Z,100003.22
2023-08-25T16:06:31.530Z,99995.50
2023-08-25T16:08:58.152Z,100002.38
2023-08-25T16:11:24.608Z,100001.19
2023-08-25T16:13:52.462Z,99991.63
2023-08-25T16:16:18.960Z,99988.31
2023-08-25T16:18:45.484Z,99993.06
2023-08-25T16:21:11.908Z,100006.00
2023-08-25T16:23:38.515Z,100002.63
2023-08-25T16:26:05.657Z,99999.16
2023-08-25T16:28:32.519Z,100012.44
2023-08-25T16:31:01.931Z,100006.03
2023-08-25T16:33:28.468Z,100005.63
2023-08-25T16:35:54.896Z,100002.25
2023-08-25T16:38:21.388Z,99993.06
2023-08-25T16:40:47.845Z,99990.56
2023-08-25T16:43:14.509Z,99989.75
2023-08-25T16:45:41.260Z,99977.94
2023-08-25T16:48:09.120Z,99992.22
2023-08-25T16:50:35.925Z,99991.41
2023-08-25T16:53:02.671Z,99997.06
2023-08-25T16:55:29.116Z,99993.13
2023-08-25T16:57:56.199Z,99992.59
2023-08-25T17:00:23.618Z,99984.50
2023-08-25T17:02:50.223Z,99989.41
2023-08-25T17:05:18.096Z,99990.13
2023-08-25T17:07:48.269Z,99974.25
2023-08-25T17:10:15.387Z,99983.28
2023-08-25T17:12:41.832Z,99987.25
2023-08-25T17:15:09.427Z,99971.84
2023-08-25T17:17:35.866Z,99984.81
2023-08-25T17:20:02.366Z,99992.22
2023-08-25T17:22:30.155Z,99986.59
2023-08-25T17:24:56.620Z,99982.38
2023-08-25T17:27:23.143Z,99994.19
2023-08-25T17:29:49.633Z,99990.00
2023-08-25T17:32:16.043Z,99985.16
2023-08-25T17:34:43.545Z,99981.03
2023-08-25T17:37:10.001Z,99979.88
2023-08-25T17:39:37.779Z,99979.44
2023-08-25T17:42:04.632Z,99981.97
2023-08-25T17:44:31.696Z,99980.31
2023-08-25T17:46:58.228Z,99989.88
2023-08-25T17:49:24.743Z,99987.19
2023-08-25T17:51:51.252Z,99971.50
2023-08-25T17:54:19.034Z,99970.97
2023-08-25T17:56:46.922Z,99985.19
2023-08-25T17:59:13.529Z,99995.25
2023-08-25T18:01:40.505Z,99999.31
2023-08-25T18:04:07.221Z,99992.53
2023-08-25T18:06:33.978Z,100006.66
2023-08-25T18:09:00.714Z,99993.72
2023-08-25T18:11:27.380Z,100001.41
2023-08-25T18:13:55.698Z,100007.63
2023-08-25T18:16:22.594Z,100016.91
2023-08-25T18:18:49.360Z,100031.53
2023-08-25T18:21:15.940Z,100027.03
2023-08-25T18:23:42.757Z,100031.16
2023-08-25T18:26:09.479Z,100031.53
2023-08-25T18:28:36.169Z,100051.34
2023-08-25T18:31:04.515Z,100045.63
2023-08-25T18:33:31.364Z,100040.03
2023-08-25T18:35:58.190Z,100043.28
2023-08-25T18:38:25.308Z,100043.25
2023-08-25T18:40:51.997Z,100037.22
2023-08-25T18:43:18.740Z,100049.31
2023-08-25T18:45:45.529Z,100045.28
2023-08-25T18:48:13.525Z,100050.97
2023-08-25T18:50:40.147Z,100044.88
2023-08-25T18:53:07.024Z,100053.38
2023-08-25T18:55:33.909Z,100047.75
2023-08-25T18:58:00.806Z,100049.34
2023-08-25T19:00:27.567Z,100048.56
2023-08-25T19:02:54.573Z,100052.19
2023-08-25T19:05:22.901Z,100054.63
2023-08-25T19:07:49.413Z,100055.47
2023-08-25T19:10:16.090Z,100056.69
2023-08-25T19:12:42.968Z,100059.13
2023-08-25T19:15:10.526Z,100065.56
2023-08-25T19:17:37.046Z,100065.59
2023-08-25T19:20:04.355Z,100072.47
2023-08-25T19:22:32.202Z,100058.72
2023-08-25T19:24:58.644Z,100055.06
2023-08-25T19:27:25.117Z,100057.13
2023-08-25T19:29:52.808Z,100064.38
2023-08-25T19:32:19.269Z,100061.97
2023-08-25T19:34:45.709Z,100046.22
2023-08-25T19:37:12.148Z,100047.81
2023-08-25T19:39:39.923Z,100048.63
2023-08-25T19:42:06.786Z,100039.31
2023-08-25T19:44:33.210Z,100040.94
2023-08-25T19:46:59.831Z,100036.88
2023-08-25T19:49:26.409Z,100032.81
2023-08-25T19:51:52.843Z,100036.88
2023-08-25T19:54:19.318Z,100034.84
2023-08-25T19:56:47.092Z,100033.66
2023-08-25T19:59:13.690Z,100041.34
2023-08-25T20:01:40.155Z,100030.44
2023-08-25T20:04:06.674Z,100034.88
2023-08-25T20:06:33.161Z,100042.16
2023-08-25T20:08:59.645Z,100041.75
2023-08-25T20:11:26.152Z,100036.50
2023-08-25T20:13:53.994Z,100038.13
2023-08-25T20:16:20.490Z,100038.09
2023-08-25T20:18:46.981Z,100035.28
2023-08-25T20:21:13.436Z,100028.38
2023-08-25T20:23:39.905Z,100023.97
2023-08-25T20:26:06.570Z,100018.28
2023-08-25T20:28:37.528Z,100015.47
2023-08-25T20:31:05.366Z,100023.13
2023-08-25T20:33:31.897Z,100027.19
2023-08-25T20:35:58.374Z,100019.88
2023-08-25T20:38:25.406Z,100007.78
2023-08-25T20:40:56.989Z,100019.09
2023-08-25T20:43:23.998Z,100008.22
2023-08-25T20:46:11.606Z,100006.16
2023-08-25T20:48:39.221Z,100010.63
2023-08-25T20:51:05.706Z,100013.84
2023-08-25T20:53:32.533Z,100028.81
2023-08-25T20:55:59.106Z,100026.41
2023-08-25T20:58:25.686Z,100017.44
2023-08-25T21:00:52.286Z,100017.44
2023-08-25T21:03:20.229Z,100015.88
2023-08-25T21:05:46.915Z,100018.31
2023-08-25T21:08:13.380Z,100015.06
2023-08-25T21:10:39.996Z,100019.91
2023-08-25T21:13:06.462Z,100011.03
2023-08-25T21:15:33.131Z,100021.53
2023-08-25T21:17:59.829Z,100017.09
2023-08-25T21:20:27.593Z,100021.47
2023-08-25T21:22:54.313Z,100022.34
2023-08-25T21:25:21.056Z,100031.59
2023-08-25T21:27:47.496Z,100035.19
2023-08-25T21:30:14.460Z,100027.91
2023-08-25T21:32:41.045Z,100032.78
2023-08-25T21:35:08.736Z,100042.59
2023-08-25T21:37:36.724Z,100032.00
2023-08-25T21:40:03.634Z,100045.38
2023-08-25T21:42:30.074Z,100040.44
2023-08-25T21:44:56.571Z,100046.53
2023-08-25T21:47:23.034Z,100038.50
2023-08-25T21:49:49.623Z,100027.19
2023-08-25T21:52:16.174Z,100028.69
2023-08-25T21:54:44.087Z,100023.13
2023-08-25T21:57:10.616Z,100028.38
2023-08-25T21:59:37.118Z,100020.34
2023-08-25T22:02:03.959Z,100023.91
2023-08-25T22:04:30.444Z,100042.59
2023-08-25T22:06:56.985Z,100097.94
2023-08-25T22:09:23.866Z,100096.34
2023-08-25T22:11:51.828Z,100066.03
2023-08-25T22:14:18.506Z,100057.53
2023-08-25T22:16:45.106Z,100049.44
2023-08-25T22:19:11.584Z,100053.84
2023-08-25T22:21:38.049Z,100043.78
2023-08-25T22:24:05.600Z,100039.75
2023-08-25T22:26:32.034Z,100044.97
2023-08-25T22:28:59.914Z,100037.31
2023-08-25T22:31:26.415Z,100051.00
2023-08-25T22:36:22.475Z,100049.84
2023-08-25T22:38:48.902Z,100049.75
2023-08-25T22:41:15.547Z,100041.34
2023-08-25T22:43:42.306Z,100045.72
2023-08-25T22:46:10.399Z,100032.78
2023-08-25T22:48:37.233Z,100042.50
2023-08-25T22:51:03.785Z,100034.00
2023-08-25T22:53:30.479Z,100032.81
2023-08-25T22:55:57.300Z,100047.34
2023-08-25T22:58:24.099Z,100043.72
2023-08-25T23:00:51.093Z,100048.53
2023-08-25T23:03:19.195Z,100043.25
2023-08-25T23:05:45.734Z,100060.56
2023-08-25T23:08:12.273Z,100053.75
2023-08-25T23:10:39.860Z,100050.53
2023-08-25T23:13:07.692Z,100041.25
2023-08-25T23:15:35.127Z,100049.72
2023-08-25T23:18:02.815Z,100045.25
2023-08-25T23:20:31.410Z,100042.03
2023-08-25T23:22:57.884Z,100042.84
2023-08-25T23:25:24.703Z,100046.06
2023-08-25T23:27:51.187Z,100041.63
2023-08-25T23:30:18.015Z,100047.69
2023-08-25T23:32:44.472Z,100051.22
2023-08-25T23:35:11.024Z,100038.44
2023-08-25T23:37:38.962Z,100043.22
2023-08-25T23:40:07.131Z,100052.47
2023-08-25T23:42:33.802Z,100043.16
2023-08-25T23:45:00.606Z,100045.63
2023-08-25T23:47:27.071Z,100039.19
2023-08-25T23:49:53.555Z,100035.53
2023-08-25T23:52:19.986Z,100042.81
2023-08-25T23:54:47.763Z,100044.72
2023-08-25T23:57:14.325Z,100038.34
2023-08-25T23:59:40.922Z,100038.34
